Terminal Aerodrome Forecast
Issued by NWS

Home | Current Version | Previous Version | Text Only | Print | Product List | Glossary On
Versions: 1 2 3 4 5 6 7 8 9 10 11 12 13 14 15 16 17 18 19 20
000
FTUS46 KMTR 201700
TAFOAK
TAF
KOAK 201734Z 2018/2124 22010KT P6SM OVC022
     FM201900 30008KT P6SM SCT020
     FM202100 29015KT P6SM FEW025
     FM210500 24005KT P6SM OVC015
     FM211800 27008KT P6SM SCT020=

USA.gov is the U.S. government's official web portal to all federal, state and local government web resources and services.